Time;durP1;ratioP1;P1;durP2;ratioP2;P2;SDS_P1;SDS_P2;PMS_P1;PMS_P2;Temp;Humidity;BMP_temperature;BMP_pressure;BME280_temperature;BME280_humidity;BME280_pressure;Samples;Min_cycle;Max_cycle;Signal;HPM_P1;HPM_P2
2022/06/13 00:01:19;;;;;;;8.27;2.92;;;12.50;99.90;;;-144.05;63.26;125687.94;6156773;23;20005;-86
2022/06/13 00:03:47;;;;;;;5.78;2.15;;;12.40;99.90;;;-144.05;63.53;125687.94;6155471;23;20081;-88
2022/06/13 00:06:19;;;;;;;6.75;1.80;;;12.40;99.90;;;-144.05;63.93;125687.94;6156568;23;20069;-89
2022/06/13 00:08:46;;;;;;;5.70;2.15;;;12.30;99.90;;;-144.05;64.44;125687.94;6158608;23;20085;-88
2022/06/13 00:11:20;;;;;;;6.13;2.58;;;12.20;99.90;;;-144.05;64.99;125687.94;6158099;23;20059;-90
2022/06/13 00:13:52;;;;;;;7.68;2.47;;;12.20;99.90;;;-144.05;65.36;125687.94;6166310;23;20040;-88
2022/06/13 00:16:19;;;;;;;6.07;2.00;;;12.20;99.90;;;-144.05;65.66;125687.94;6175678;23;20020;-88
2022/06/13 00:18:49;;;;;;;4.30;1.83;;;12.10;99.90;;;-144.05;66.12;125687.94;6176391;23;20009;-87
2022/06/13 00:21:32;;;;;;;5.75;2.10;;;12.10;99.90;;;-144.05;66.38;125687.94;6161953;23;20052;-88
2022/06/13 00:24:01;;;;;;;7.28;2.28;;;12.00;99.90;;;-144.05;66.62;125687.94;6155496;23;20084;-87
2022/06/13 00:26:32;;;;;;;6.93;2.50;;;12.00;99.90;;;-144.05;67.13;125687.94;6155569;23;20005;-89
2022/06/13 00:28:59;;;;;;;5.30;2.00;;;11.90;99.90;;;-144.05;67.36;125687.94;6158144;23;20010;-86
2022/06/13 00:31:26;;;;;;;4.30;2.20;;;11.90;99.90;;;-144.05;67.60;125687.94;6158122;23;20084;-87
2022/06/13 00:33:53;;;;;;;6.25;2.38;;;11.90;99.90;;;-144.05;67.86;125687.94;6159101;23;20092;-89
2022/06/13 00:36:23;;;;;;;7.40;2.53;;;11.80;99.90;;;-144.05;68.12;125687.94;6158133;23;20005;-85
2022/06/13 00:38:52;;;;;;;8.52;2.70;;;11.80;99.90;;;-144.05;68.45;125687.94;6157216;23;20014;-87
2022/06/13 00:41:29;;;;;;;5.95;2.65;;;11.70;99.90;;;-144.05;69.11;125687.94;6158972;23;20001;-88
2022/06/13 00:43:55;;;;;;;8.60;2.58;;;11.70;99.90;;;-144.05;69.21;125687.94;6157419;23;20002;-86
2022/06/13 00:46:34;;;;;;;5.95;2.70;;;11.60;99.90;;;-144.05;69.66;125687.94;6157308;23;20002;-86
2022/06/13 00:49:15;;;;;;;6.78;2.80;;;11.60;99.90;;;-144.05;69.95;125687.94;6157393;23;20009;-86
2022/06/13 00:52:23;;;;;;;7.68;3.00;;;11.60;99.90;;;-144.05;70.90;125687.94;6157831;23;20006;-87
2022/06/13 00:54:54;;;;;;;6.20;2.60;;;11.70;99.90;;;-144.05;70.53;125687.94;6169968;23;20036;-84
2022/06/13 00:57:28;;;;;;;8.93;2.67;;;11.70;99.90;;;-144.05;71.75;125687.94;6173816;23;20096;-90
2022/06/13 01:00:07;;;;;;;6.45;2.70;;;11.70;99.90;;;-144.05;71.38;125687.94;6157757;23;20305;-88
2022/06/13 01:02:37;;;;;;;7.93;3.45;;;11.70;99.90;;;-144.05;71.31;125687.94;6157077;23;20088;-86
2022/06/13 01:05:04;;;;;;;9.50;2.35;;;11.70;99.90;;;-144.05;71.23;125687.94;6161882;23;20009;-90
2022/06/13 01:07:34;;;;;;;4.82;2.40;;;11.60;99.90;;;-144.05;71.05;125687.94;6159381;23;20420;-89
2022/06/13 01:12:50;;;;;;;5.07;2.38;;;11.50;99.90;;;-144.05;72.01;125687.94;6159191;23;20025;-86
2022/06/13 01:16:04;;;;;;;7.85;3.35;;;11.50;99.90;;;-144.05;72.09;125687.94;6157184;23;20025;-87
2022/06/13 01:19:23;;;;;;;8.93;3.28;;;11.40;99.90;;;-144.05;72.47;125687.94;6144726;23;20071;-88
2022/06/13 01:22:16;;;;;;;7.47;3.00;;;11.40;99.90;;;-144.05;72.93;125687.94;6157422;23;20006;-90
2022/06/13 01:25:31;;;;;;;8.05;2.78;;;11.40;99.90;;;-144.05;73.12;125687.94;6153951;23;20470;-88
2022/06/13 01:28:25;;;;;;;7.35;2.90;;;11.30;99.90;;;-144.05;72.95;125687.94;6154662;23;20036;-89
2022/06/13 01:31:28;;;;;;;7.35;3.00;;;11.30;99.90;;;-144.05;73.22;125687.94;6154064;23;20289;-87
2022/06/13 01:34:18;;;;;;;7.05;2.53;;;11.20;99.90;;;-144.05;73.85;125687.94;6155538;23;20008;-85
2022/06/13 01:37:03;;;;;;;10.05;3.45;;;11.20;99.90;;;-144.05;73.83;125687.94;6153838;23;20375;-90
2022/06/13 01:40:28;;;;;;;6.43;2.65;;;11.10;99.90;;;-144.05;74.53;125687.94;6153734;23;20340;-87
2022/06/13 01:43:35;;;;;;;7.50;3.05;;;11.10;99.90;;;-144.05;74.68;125687.94;6153694;23;20009;-85
2022/06/13 01:46:44;;;;;;;9.80;3.03;;;11.00;99.90;;;-144.05;75.12;125687.94;6153605;23;20070;-88
2022/06/13 01:50:01;;;;;;;8.82;3.33;;;11.00;99.90;;;-144.05;75.47;125687.94;6152752;23;20383;-86
2022/06/13 01:53:01;;;;;;;9.18;4.00;;;11.00;99.90;;;-144.05;75.73;125687.94;6155239;23;20013;-88
2022/06/13 01:55:47;;;;;;;8.15;3.05;;;11.00;99.90;;;-144.05;76.06;125687.94;6153747;23;20009;-87
2022/06/13 01:58:37;;;;;;;8.40;3.47;;;10.90;99.90;;;-144.05;76.39;125687.94;6153462;23;20033;-88
2022/06/13 02:01:34;;;;;;;7.50;3.42;;;10.90;99.90;;;-144.05;76.42;125687.94;6153691;23;20045;-90
2022/06/13 02:04:14;;;;;;;4.60;2.83;;;10.90;99.90;;;-144.05;76.56;125687.94;6153416;23;20018;-88
2022/06/13 02:07:17;;;;;;;8.32;3.38;;;10.90;99.90;;;-144.05;76.54;125687.94;6154022;23;20013;-88
2022/06/13 02:09:58;;;;;;;7.47;3.17;;;11.00;99.90;;;-144.05;76.88;125687.94;6154572;23;20068;-91
2022/06/13 02:12:32;;;;;;;7.13;2.80;;;11.00;99.90;;;-144.05;76.71;125687.94;6155563;23;20001;-88
2022/06/13 02:15:21;;;;;;;6.32;3.03;;;11.10;99.90;;;-144.05;76.66;125687.94;6153476;23;20009;-88
2022/06/13 02:17:59;;;;;;;7.63;3.00;;;11.10;99.90;;;-144.05;77.12;125687.94;6153895;23;20340;-88
2022/06/13 02:20:41;;;;;;;7.93;3.22;;;11.20;99.90;;;-144.05;77.00;125687.94;6155059;23;20051;-87
2022/06/13 02:23:21;;;;;;;8.98;3.13;;;11.20;99.90;;;-144.05;76.75;125687.94;6153768;23;20107;-88
2022/06/13 02:26:04;;;;;;;6.55;2.83;;;11.30;99.90;;;-144.05;76.67;125687.94;6178560;23;20107;-84
2022/06/13 02:28:49;;;;;;;8.05;3.05;;;11.30;99.90;;;-144.05;76.72;125687.94;6168432;23;20016;-92
2022/06/13 02:31:42;;;;;;;9.00;3.83;;;11.20;99.90;;;-144.05;77.04;125687.94;6156314;23;20012;-86
2022/06/13 02:34:43;;;;;;;7.00;3.22;;;11.20;99.90;;;-144.05;76.69;125687.94;6158323;23;20432;-89
2022/06/13 02:37:44;;;;;;;8.70;3.25;;;11.20;99.90;;;-144.05;76.79;125687.94;6149766;23;20029;-86
2022/06/13 02:40:33;;;;;;;8.05;3.10;;;11.10;99.90;;;-144.05;76.89;125687.94;6131137;23;20149;-87
2022/06/13 02:43:25;;;;;;;5.38;2.92;;;11.10;99.90;;;-144.05;77.20;125687.94;6131112;23;20014;-87
2022/06/13 02:46:01;;;;;;;6.85;3.25;;;11.00;99.90;;;-144.05;77.31;125687.94;6131736;23;20368;-88
2022/06/13 02:48:46;;;;;;;5.25;3.17;;;11.00;99.90;;;-144.05;77.51;125687.94;6131177;23;20420;-89
2022/06/13 02:51:56;;;;;;;11.32;3.45;;;10.90;99.90;;;-144.05;77.73;125687.94;6134907;23;20005;-85
2022/06/13 02:54:33;;;;;;;6.60;3.40;;;10.90;99.90;;;-144.05;77.46;125687.94;6223413;22;20032;-86
2022/06/13 02:57:29;;;;;;;6.28;3.30;;;10.90;99.90;;;-144.05;77.79;125687.94;6222993;23;20406;-91
2022/06/13 03:00:10;;;;;;;7.97;3.30;;;10.80;99.90;;;-144.05;77.86;125687.94;6210249;23;20071;-90
2022/06/13 03:03:14;;;;;;;7.50;3.28;;;10.80;99.90;;;-144.05;78.03;125687.94;6186084;23;20048;-88
2022/06/13 03:06:18;;;;;;;13.18;4.40;;;10.80;99.90;;;-144.05;78.16;125687.94;6186123;23;20076;-93
2022/06/13 03:08:55;;;;;;;6.10;3.15;;;10.80;99.90;;;-144.05;78.12;125687.94;6186230;23;20288;-89
2022/06/13 03:12:10;;;;;;;6.32;3.47;;;10.90;99.90;;;-144.05;78.33;125687.94;6188289;23;20059;-90
2022/06/13 03:15:27;;;;;;;11.25;4.15;;;10.90;99.90;;;-144.05;78.08;125687.94;6183245;23;20031;-89
2022/06/13 03:18:23;;;;;;;6.80;3.70;;;11.00;99.90;;;-144.05;78.05;125687.94;6184887;23;20076;-91
2022/06/13 03:21:09;;;;;;;;;;;11.00;99.90;;;-144.05;78.23;125687.94;6183410;23;20008;-89
2022/06/13 03:23:59;;;;;;;9.60;3.80;;;11.10;99.90;;;-144.05;78.13;125687.94;6183158;23;19915;-89
2022/06/13 03:26:41;;;;;;;10.05;3.50;;;11.10;99.90;;;-144.05;78.19;125687.94;6184904;23;20008;-88
2022/06/13 03:29:42;;;;;;;7.95;4.13;;;11.20;99.90;;;-144.05;78.11;125687.94;6184591;23;20100;-83
2022/06/13 03:32:21;;;;;;;7.70;3.80;;;11.20;99.90;;;-144.05;78.10;125687.94;6183946;23;20140;-86
2022/06/13 03:34:58;;;;;;;9.48;3.83;;;11.30;99.90;;;-144.05;78.02;125687.94;6184880;23;20001;-85
2022/06/13 03:37:41;;;;;;;6.55;3.80;;;11.30;99.90;;;-144.05;77.91;125687.94;6183509;23;20524;-86
2022/06/13 03:40:26;;;;;;;9.55;4.43;;;11.40;99.90;;;-144.05;77.87;125687.94;6184867;23;20505;-91
2022/06/13 03:42:59;;;;;;;10.90;4.00;;;11.50;99.90;;;-144.05;77.70;125687.94;6182677;23;20017;-89
2022/06/13 03:45:39;;;;;;;10.30;4.28;;;11.60;99.90;;;-144.05;77.24;125687.94;6182442;23;20009;-90
2022/06/13 03:48:26;;;;;;;9.07;4.13;;;11.70;99.90;;;-144.05;77.15;125687.94;6182432;23;20005;-88
2022/06/13 03:51:20;;;;;;;8.75;3.97;;;11.80;99.90;;;-144.05;77.08;125687.94;6182989;23;20004;-90
2022/06/13 03:54:11;;;;;;;7.30;3.47;;;11.90;99.90;;;-144.05;76.89;125687.94;6185649;23;20048;-91
2022/06/13 03:56:58;;;;;;;10.82;4.60;;;11.90;99.90;;;-144.05;76.59;125687.94;6190065;23;20056;-88
2022/06/13 03:59:44;;;;;;;7.78;4.10;;;11.90;99.90;;;-144.05;76.50;125687.94;6205577;23;20001;-85
2022/06/13 04:02:16;;;;;;;10.40;4.57;;;12.00;99.90;;;-144.05;76.04;125687.94;6230447;23;20009;-88
2022/06/13 04:04:49;;;;;;;8.88;4.07;;;12.10;99.90;;;-144.05;75.77;125687.94;6208145;23;20002;-89
2022/06/13 04:07:19;;;;;;;9.90;4.20;;;12.20;99.90;;;-144.05;75.42;125687.94;6193116;23;20096;-88
2022/06/13 04:10:06;;;;;;;8.07;3.67;;;12.30;99.90;;;-144.05;75.25;125687.94;6186007;23;20004;-88
2022/06/13 04:12:53;;;;;;;;;;;12.30;99.90;;;-144.05;75.27;125687.94;6186747;23;20047;-88
2022/06/13 04:16:19;;;;;;;8.82;3.35;;;12.40;99.90;;;-144.05;74.76;125687.94;6186458;23;19908;-89
2022/06/13 04:19:31;;;;;;;6.82;4.47;;;12.40;99.90;;;-144.05;74.56;125687.94;6179057;23;20048;-89
2022/06/13 04:22:40;;;;;;;7.90;3.60;;;12.50;99.90;;;-144.05;74.63;125687.94;6181725;23;20338;-89
2022/06/13 04:25:44;;;;;;;8.77;3.60;;;12.50;99.90;;;-144.05;74.76;125687.94;6186345;23;20063;-89
2022/06/13 04:28:35;;;;;;;11.38;3.55;;;12.50;99.90;;;-144.05;74.56;125687.94;6186321;23;20024;-89
2022/06/13 04:31:08;;;;;;;5.45;3.67;;;12.50;99.90;;;-144.05;74.39;125687.94;6187630;23;20433;-92
2022/06/13 04:33:47;;;;;;;10.90;4.45;;;12.60;99.90;;;-144.05;74.28;125687.94;6188388;23;20087;-87
2022/06/13 04:36:17;;;;;;;11.63;3.88;;;12.60;99.90;;;-144.05;74.38;125687.94;6190916;23;20431;-88
2022/06/13 04:38:55;;;;;;;9.23;4.10;;;12.60;99.90;;;-144.05;74.16;125687.94;6189006;23;20051;-89
2022/06/13 04:41:30;;;;;;;11.20;4.72;;;12.60;99.90;;;-144.05;74.04;125687.94;6189268;23;20133;-90
2022/06/13 04:44:04;;;;;;;17.95;5.13;;;12.70;99.90;;;-144.05;73.65;125687.94;6189946;23;20079;-91
2022/06/13 04:46:37;;;;;;;9.43;3.97;;;12.70;99.90;;;-144.05;73.23;125687.94;6189465;23;20095;-88
2022/06/13 04:49:32;;;;;;;12.82;4.30;;;12.80;99.90;;;-144.05;73.02;125687.94;6194737;23;20032;-82
2022/06/13 04:52:08;;;;;;;10.60;4.40;;;12.90;99.90;;;-144.05;72.93;125687.94;6188049;23;20107;-87
2022/06/13 04:54:49;;;;;;;7.93;3.83;;;13.00;99.90;;;-144.05;72.55;125687.94;6188218;23;20035;-91
2022/06/13 04:57:18;;;;;;;10.75;4.40;;;13.10;99.90;;;-144.05;71.28;125687.94;6188276;23;20005;-90
2022/06/13 04:59:46;;;;;;;11.35;4.80;;;13.20;99.90;;;-144.05;71.23;125687.94;6189084;23;20300;-88
2022/06/13 05:02:22;;;;;;;13.82;4.45;;;13.30;99.90;;;-144.05;70.47;125687.94;6188611;23;20009;-91
2022/06/13 05:04:49;;;;;;;9.45;4.15;;;13.50;99.90;;;-144.05;70.24;125687.94;6190240;23;20096;-89
2022/06/13 05:07:20;;;;;;;6.47;3.75;;;13.60;99.90;;;-144.05;70.37;125687.94;6188368;23;20005;-91
2022/06/13 05:10:16;;;;;;;9.00;3.47;;;13.70;99.90;;;-144.05;70.35;125687.94;6188611;23;20005;-89
2022/06/13 05:12:45;;;;;;;10.65;4.40;;;13.80;99.90;;;-144.05;69.99;125687.94;6188876;23;20439;-89
2022/06/13 05:15:25;;;;;;;14.10;5.15;;;13.80;99.90;;;-144.05;70.27;125687.94;6188673;23;20083;-90
2022/06/13 05:18:19;;;;;;;9.40;3.97;;;13.90;99.90;;;-144.05;70.91;125687.94;6188952;23;20449;-87
2022/06/13 05:21:19;;;;;;;10.27;4.28;;;13.70;99.90;;;-144.05;71.37;125687.94;6187828;23;20032;-90
2022/06/13 05:24:36;;;;;;;13.75;4.22;;;13.70;99.90;;;-144.05;73.78;125687.94;6185532;23;20083;-92
2022/06/13 05:27:06;;;;;;;12.65;3.88;;;13.60;99.90;;;-144.05;74.17;125687.94;6189802;23;20020;-91
2022/06/13 05:29:33;;;;;;;13.20;5.43;;;13.50;99.90;;;-144.05;75.15;125687.94;6191863;23;20005;-89
2022/06/13 05:31:59;;;;;;;11.90;5.13;;;13.40;99.90;;;-144.05;76.25;125687.94;6190945;23;20013;-90
2022/06/13 05:34:37;;;;;;;11.90;4.80;;;13.30;99.90;;;-144.05;77.22;125687.94;6192506;23;20041;-91
2022/06/13 05:37:04;;;;;;;14.45;5.47;;;13.20;99.90;;;-144.05;77.76;125687.94;6192472;23;20086;-90
2022/06/13 05:39:31;;;;;;;10.15;5.03;;;13.20;99.90;;;-144.05;77.81;125687.94;6196134;23;20039;-88
2022/06/13 05:41:58;;;;;;;8.02;4.53;;;13.10;99.90;;;-144.05;78.09;125687.94;6197953;23;20044;-88
2022/06/13 05:44:24;;;;;;;11.73;4.80;;;13.10;99.90;;;-144.05;78.67;125687.94;6201900;23;20065;-85
2022/06/13 05:46:52;;;;;;;9.43;4.75;;;13.10;99.90;;;-144.05;78.83;125687.94;6202467;23;20005;-87
2022/06/13 05:49:18;;;;;;;9.73;5.32;;;13.10;99.90;;;-144.05;79.07;125687.94;6201362;23;20001;-84
2022/06/13 05:51:44;;;;;;;10.30;4.43;;;13.10;99.90;;;-144.05;79.58;125687.94;6201984;23;19993;-91
2022/06/13 05:54:13;;;;;;;13.27;5.25;;;13.10;99.90;;;-144.05;79.67;125687.94;6191064;23;20055;-89
2022/06/13 05:56:40;;;;;;;12.07;5.18;;;13.10;99.90;;;-144.05;80.33;125687.94;6189441;23;20008;-88
2022/06/13 05:59:07;;;;;;;9.20;6.00;;;13.20;99.90;;;-144.05;80.46;125687.94;6188605;23;20005;-91
2022/06/13 06:01:35;;;;;;;15.20;5.75;;;13.20;99.90;;;-144.05;80.96;125687.94;6187533;23;20379;-89
2022/06/13 06:04:05;;;;;;;10.15;5.05;;;13.20;99.90;;;-144.05;81.00;125687.94;6188131;23;20001;-89
2022/06/13 06:06:36;;;;;;;11.60;5.45;;;13.30;99.90;;;-144.05;81.21;125687.94;6189948;23;20015;-86
2022/06/13 06:09:05;;;;;;;13.20;5.68;;;13.30;99.90;;;-144.05;81.39;125687.94;6190849;23;20059;-87
2022/06/13 06:11:32;;;;;;;13.50;5.70;;;13.40;99.90;;;-144.05;81.56;125687.94;6191786;23;20005;-85
2022/06/13 06:13:58;;;;;;;13.80;5.43;;;13.40;99.90;;;-144.05;81.56;125687.94;6191461;23;20343;-85
2022/06/13 06:16:31;;;;;;;15.50;6.72;;;13.50;99.90;;;-144.05;81.34;125687.94;6192834;23;20001;-85
2022/06/13 06:18:59;;;;;;;17.13;6.75;;;13.60;99.90;;;-144.05;80.97;125687.94;6189178;23;20009;-87
2022/06/13 06:21:25;;;;;;;13.18;6.55;;;13.60;99.90;;;-144.05;80.84;125687.94;6190531;23;20058;-84
2022/06/13 06:23:51;;;;;;;10.88;6.05;;;13.80;99.90;;;-144.05;80.07;125687.94;6195731;23;20063;-83
2022/06/13 06:26:27;;;;;;;13.93;6.22;;;14.00;99.90;;;-144.05;79.53;125687.94;6194469;23;20009;-85
2022/06/13 06:28:54;;;;;;;15.98;7.00;;;14.10;99.90;;;-144.05;78.30;125687.94;6190737;23;20027;-86
2022/06/13 06:31:22;;;;;;;22.02;7.15;;;14.20;99.90;;;-144.05;77.98;125687.94;6195740;23;20005;-86
2022/06/13 06:33:48;;;;;;;19.63;6.40;;;14.30;99.90;;;-144.05;77.52;125687.94;6191675;23;20079;-86
2022/06/13 06:36:15;;;;;;;11.05;6.85;;;14.30;99.90;;;-144.05;78.50;125687.94;6195138;23;20331;-83
2022/06/13 06:38:45;;;;;;;16.70;7.13;;;14.30;99.90;;;-144.05;77.52;125687.94;6194339;23;20032;-89
2022/06/13 06:41:12;;;;;;;19.30;6.32;;;14.50;99.90;;;-144.05;77.34;125687.94;6195167;23;20009;-86
2022/06/13 06:43:38;;;;;;;10.52;5.95;;;14.60;99.90;;;-144.05;76.70;125687.94;6192242;23;20436;-86
2022/06/13 06:46:05;;;;;;;12.60;5.70;;;14.70;99.90;;;-144.05;75.85;125687.94;6206941;23;20032;-81
2022/06/13 06:48:31;;;;;;;9.00;5.13;;;14.80;99.90;;;-144.05;76.17;125687.94;6200155;23;20013;-89
2022/06/13 06:50:58;;;;;;;14.68;6.70;;;14.90;99.90;;;-144.05;75.73;125687.94;6190567;23;20005;-88
2022/06/13 06:59:53;;;;;;;10.88;5.80;;;15.40;99.90;;;-144.05;73.04;125687.94;6190827;23;20013;-86
2022/06/13 07:01:42;;;;;;;12.90;5.55;;;16.60;99.90;;;-144.05;68.89;125687.94;6191145;23;20020;-82
2022/06/13 07:04:08;;;;;;;14.60;5.43;;;17.10;99.90;;;-144.05;67.54;125687.94;6192674;23;20005;-86
2022/06/13 07:06:34;;;;;;;14.50;5.65;;;17.60;99.90;;;-144.05;64.97;125687.94;6188636;23;20005;-90
2022/06/13 07:09:00;;;;;;;13.00;5.50;;;17.50;99.90;;;-144.05;65.97;125687.94;6190558;23;20380;-88
2022/06/13 07:11:59;;;;;;;8.98;5.22;;;17.40;99.90;;;-144.05;65.45;125687.94;6191817;23;20008;-88
2022/06/13 07:14:18;;;;;;;10.55;5.68;;;17.30;99.90;;;-144.05;64.48;125687.94;6190232;23;20009;-87
2022/06/13 07:16:44;;;;;;;13.65;5.45;;;17.60;99.90;;;-144.05;60.87;125687.94;6192051;23;20316;-87
2022/06/13 07:19:10;;;;;;;14.27;5.47;;;18.00;99.90;;;-144.05;61.34;125687.94;6191666;23;20409;-90
2022/06/13 07:21:36;;;;;;;13.48;5.60;;;18.20;99.90;;;-144.05;60.12;125687.94;6193890;23;20008;-89
2022/06/13 07:24:03;;;;;;;12.52;5.63;;;18.40;99.90;;;-144.05;61.06;125687.94;6193738;23;20066;-84
2022/06/13 07:26:31;;;;;;;11.70;5.45;;;18.40;99.90;;;-144.05;61.72;125687.94;6193191;23;20450;-87
2022/06/13 07:28:57;;;;;;;12.10;5.53;;;18.20;99.90;;;-144.05;62.33;125687.94;6192765;23;20517;-85
2022/06/13 07:31:45;;;;;;;13.10;5.50;;;18.30;99.90;;;-144.05;59.73;125687.94;6191969;23;20012;-86
2022/06/13 07:34:21;;;;;;;9.65;5.82;;;18.60;99.90;;;-144.05;58.99;125687.94;6190880;23;20017;-86
2022/06/13 07:36:52;;;;;;;13.23;6.10;;;18.60;99.90;;;-144.05;58.43;125687.94;6188692;23;20009;-86
2022/06/13 07:39:18;;;;;;;15.27;6.95;;;18.60;99.90;;;-144.05;57.42;125687.94;6189900;23;20042;-85
2022/06/13 07:41:45;;;;;;;12.25;5.97;;;18.60;99.90;;;-144.05;58.91;125687.94;6188808;23;20482;-86
2022/06/13 07:44:25;;;;;;;12.55;5.43;;;19.10;99.90;;;-144.05;57.48;125687.94;6191907;23;20062;-86
2022/06/13 07:46:52;;;;;;;15.23;6.82;;;19.30;99.90;;;-144.05;54.78;125687.94;6220199;23;20078;-86
2022/06/13 07:49:20;;;;;;;13.30;6.10;;;19.30;99.90;;;-144.05;56.03;125687.94;6191508;23;20013;-88
2022/06/13 07:51:47;;;;;;;16.25;7.40;;;19.00;99.90;;;-144.05;57.81;125687.94;6190758;23;20064;-86
2022/06/13 07:54:14;;;;;;;11.73;5.75;;;18.70;99.90;;;-144.05;59.08;125687.94;6191882;23;20016;-85
2022/06/13 07:56:42;;;;;;;17.20;7.13;;;18.60;99.90;;;-144.05;59.19;125687.94;6190709;23;20043;-88
2022/06/13 07:59:19;;;;;;;18.10;7.32;;;18.40;99.90;;;-144.05;59.08;125687.94;6190964;23;20005;-83
2022/06/13 08:01:45;;;;;;;14.73;7.00;;;18.30;99.90;;;-144.05;60.09;125687.94;6189955;23;20009;-84
2022/06/13 08:04:12;;;;;;;17.45;7.43;;;18.20;99.90;;;-144.05;59.96;125687.94;6190859;23;20008;-85
2022/06/13 08:06:41;;;;;;;16.52;7.80;;;18.00;99.90;;;-144.05;60.09;125687.94;6190455;23;20055;-86
2022/06/13 08:09:10;;;;;;;20.77;8.70;;;18.00;99.90;;;-144.05;59.05;125687.94;6189977;23;20009;-86
2022/06/13 08:11:47;;;;;;;16.75;8.48;;;18.40;99.90;;;-144.05;55.77;125687.94;6191154;23;20025;-86
2022/06/13 08:14:14;;;;;;;20.02;8.57;;;19.20;99.90;;;-144.05;54.20;125687.94;6188022;23;20013;-88
2022/06/13 08:16:40;;;;;;;16.33;7.45;;;19.60;99.90;;;-144.05;54.03;125687.94;6214426;23;20005;-85
2022/06/13 08:19:07;;;;;;;17.67;8.50;;;19.70;99.90;;;-144.05;53.04;125687.94;6191650;23;20002;-85
2022/06/13 08:21:36;;;;;;;14.65;8.52;;;19.80;99.90;;;-144.05;54.65;125687.94;6188151;23;20424;-86
2022/06/13 08:24:05;;;;;;;14.57;7.95;;;19.80;99.90;;;-144.05;55.21;125687.94;6190068;23;20036;-86
2022/06/13 08:26:31;;;;;;;17.63;7.78;;;20.00;99.90;;;-144.05;54.11;125687.94;6213639;23;20016;-87
2022/06/13 08:29:08;;;;;;;14.95;8.20;;;19.80;99.90;;;-144.05;54.44;125687.94;6190786;23;20036;-86
2022/06/13 08:31:58;;;;;;;13.25;6.97;;;19.60;99.90;;;-144.05;51.83;125687.94;6192764;23;20412;-86
2022/06/13 08:34:38;;;;;;;16.90;6.40;;;19.50;99.90;;;-144.05;50.82;125687.94;6192813;23;20335;-85
2022/06/13 08:37:25;;;;;;;11.40;7.05;;;19.70;99.90;;;-144.05;51.16;125687.94;6194573;23;20037;-88
2022/06/13 08:39:56;;;;;;;13.43;7.07;;;19.90;99.90;;;-144.05;49.93;125687.94;6194242;23;20008;-86
2022/06/13 08:42:57;;;;;;;13.52;7.43;;;20.90;99.90;;;-144.05;47.39;125687.94;6202293;23;20083;-85
2022/06/13 08:46:11;;;;;;;17.20;8.63;;;21.50;99.90;;;-144.05;47.02;125687.94;6205351;23;19993;-86
2022/06/13 08:49:20;;;;;;;;;;;;;;;;;;;;;
2022/06/13 08:52:45;;;;;;;14.15;7.20;;;20.80;99.90;;;-144.05;48.61;125687.94;6208098;23;20005;-87
2022/06/13 08:55:55;;;;;;;;;;;;;;;;;;;;;
2022/06/13 08:58:53;;;;;;;16.50;8.68;;;20.20;99.90;;;-144.05;49.13;125687.94;6197458;23;20001;-84
2022/06/13 09:01:46;;;;;;;17.13;9.82;;;19.90;99.90;;;-144.05;50.03;125687.94;6192416;23;20032;-84
2022/06/13 09:04:54;;;;;;;15.90;8.02;;;19.60;99.90;;;-144.05;49.28;125687.94;6185637;23;20041;-86
2022/06/13 09:07:38;;;;;;;11.48;7.43;;;19.30;99.90;;;-144.05;49.57;125687.94;6184703;23;20029;-84
2022/06/13 09:10:23;;;;;;;13.90;8.23;;;19.50;99.90;;;-144.05;49.88;125687.94;6184620;23;20431;-85
2022/06/13 09:13:32;;;;;;;14.57;7.97;;;19.60;99.90;;;-144.05;50.17;125687.94;6186222;23;20009;-86
2022/06/13 09:16:33;;;;;;;20.10;9.15;;;19.90;99.90;;;-144.05;48.08;125687.94;6189385;23;20047;-85
2022/06/13 09:19:39;;;;;;;19.27;8.75;;;19.80;99.90;;;-144.05;49.48;125687.94;6188985;23;20009;-82
2022/06/13 09:23:15;;;;;;;17.85;8.05;;;19.90;99.90;;;-144.05;49.61;125687.94;6201790;23;20033;-87
2022/06/13 09:26:28;;;;;;;14.95;7.10;;;19.50;99.90;;;-144.05;51.74;125687.94;6206317;23;20027;-87
2022/06/13 09:29:25;;;;;;;22.23;8.43;;;18.80;99.90;;;-144.05;52.29;125687.94;6193670;23;20005;-85
2022/06/13 09:32:25;;;;;;;16.92;7.03;;;18.40;99.90;;;-144.05;53.86;125687.94;6200822;23;20358;-84
2022/06/13 09:35:04;;;;;;;16.75;7.47;;;18.30;99.90;;;-144.05;53.08;125687.94;6191061;23;20419;-86
2022/06/13 09:37:59;;;;;;;13.85;6.45;;;18.50;99.90;;;-144.05;50.13;125687.94;6197928;23;20005;-86
2022/06/13 09:41:24;;;;;;;16.38;6.47;;;19.20;99.90;;;-144.05;49.14;125687.94;6200628;23;20001;-87
2022/06/13 09:44:29;;;;;;;9.32;5.22;;;19.70;99.90;;;-144.05;47.55;125687.94;6201540;23;20009;-85
2022/06/13 09:47:25;;;;;;;12.13;4.68;;;19.70;99.90;;;-144.05;48.26;125687.94;6201281;23;20009;-86
2022/06/13 09:50:14;;;;;;;11.07;4.45;;;20.00;99.90;;;-144.05;48.17;125687.94;6200079;23;20005;-87
2022/06/13 09:54:07;;;;;;;16.25;5.40;;;19.90;99.90;;;-144.05;48.10;125687.94;6200641;23;20386;-87
2022/06/13 09:57:39;;;;;;;15.50;5.30;;;19.70;99.90;;;-144.05;49.06;125687.94;6200139;23;20020;-87
2022/06/13 10:00:49;;;;;;;15.93;4.85;;;19.90;99.90;;;-144.05;45.61;125687.94;6201191;23;20275;-86
2022/06/13 10:04:14;;;;;;;9.15;3.60;;;20.50;99.90;;;-144.05;43.98;125687.94;6196891;23;20024;-86
2022/06/13 10:07:02;;;;;;;7.63;3.67;;;20.70;99.90;;;-144.05;43.58;125687.94;6199157;23;20016;-86
2022/06/13 10:10:19;;;;;;;12.32;3.47;;;20.70;99.90;;;-144.05;43.72;125687.94;6201372;23;20005;-86
2022/06/13 10:13:27;;;;;;;11.40;3.97;;;20.80;99.90;;;-144.05;42.51;125687.94;6206121;23;20005;-90
2022/06/13 10:16:10;;;;;;;12.90;3.42;;;21.20;99.90;;;-144.05;40.83;125687.94;6200010;23;20080;-87
2022/06/13 10:19:15;;;;;;;10.15;3.40;;;22.10;99.90;;;-144.05;36.47;125687.94;6193707;23;20088;-87
2022/06/13 10:21:52;;;;;;;9.90;3.38;;;22.80;90.20;;;-144.05;35.47;125687.94;6193612;23;20009;-87
2022/06/13 10:24:37;;;;;;;11.70;3.58;;;23.50;84.00;;;-144.05;35.42;125687.94;6218243;23;20012;-87
2022/06/13 10:27:35;;;;;;;8.35;3.08;;;23.80;78.80;;;-144.05;34.65;125687.94;6193267;23;20009;-87
2022/06/13 10:30:13;;;;;;;8.80;2.53;;;24.50;78.50;;;-144.05;34.83;125687.94;6197393;23;20013;-89
2022/06/13 10:33:09;;;;;;;8.95;2.97;;;24.20;75.50;;;-144.05;34.88;125687.94;6208634;23;20013;-89
2022/06/13 10:36:06;;;;;;;7.55;2.90;;;23.80;75.00;;;-144.05;35.16;125687.94;6207056;23;20016;-89
2022/06/13 10:39:15;;;;;;;9.63;2.50;;;23.60;75.60;;;-144.05;34.58;125687.94;6207623;23;20013;-87
2022/06/13 10:41:52;;;;;;;5.75;1.77;;;23.90;74.90;;;-144.05;33.86;125687.94;6195346;23;20028;-88
2022/06/13 10:44:20;;;;;;;6.65;2.60;;;24.00;71.60;;;-144.05;32.40;125687.94;6201476;23;20005;-86
2022/06/13 10:47:08;;;;;;;7.47;2.00;;;23.80;66.70;;;-144.05;33.42;125687.94;6213062;23;20043;-83
2022/06/13 10:50:02;;;;;;;8.10;2.90;;;23.40;68.40;;;-144.05;34.98;125687.94;6200381;23;20021;-85
2022/06/13 10:52:44;;;;;;;10.15;2.92;;;22.50;71.60;;;-144.05;36.02;125687.94;6199492;23;20008;-85
2022/06/13 10:55:19;;;;;;;6.28;2.22;;;21.50;74.30;;;-144.05;37.80;125687.94;6195211;23;20031;-90
2022/06/13 10:58:04;;;;;;;5.68;2.10;;;21.30;80.50;;;-144.05;36.78;125687.94;6192204;23;20009;-86
2022/06/13 11:00:32;;;;;;;9.60;2.55;;;21.60;79.70;;;-144.05;37.80;125687.94;6190258;23;20005;-89
2022/06/13 11:03:20;;;;;;;6.90;1.95;;;21.50;86.30;;;-144.05;36.38;125687.94;6194145;23;20009;-88
2022/06/13 11:06:05;;;;;;;7.22;1.65;;;21.50;79.60;;;-144.05;36.07;125687.94;6193674;23;20005;-88
2022/06/13 11:08:33;;;;;;;4.38;1.88;;;21.20;81.10;;;-144.05;37.09;125687.94;6196384;23;20092;-89
2022/06/13 11:11:13;;;;;;;6.50;1.85;;;20.70;79.80;;;-144.05;37.32;125687.94;6195429;23;20019;-90
2022/06/13 11:13:43;;;;;;;5.60;1.90;;;20.40;80.80;;;-144.05;36.53;125687.94;6197228;23;20104;-89